Decoded Metar for KHBI (ASHEBORO MUNI in NC, USA) (IATA:HBI) | Meteo·Mobile Aviation Weather
aviador You're here:

KHBI Decoded Metar

ASHEBORO MUNI in NC, USA
Report Time2018-08-21 10:05:00
UTC Time2018-08-21 10:37:13
Flight Rules vfr VFR
Wind180° at 03 kt
W.Decomp.*RWY 21: 2.8 kt HW 1.1 kt LCW
W.Rank180° ranks 7
Current wind is below 180° avg. (5.6)
Visibility9999 m
Phenomena:N/A
Clouds:N/A
CeilingNone
Temp23°C (ISA +9)
Dew Point23°C (100% RH)
QNH1017 hPa
Density Alt1,995 ft
Elevation673 ft
Report Wrong Elevation
Raw Report
KHBI 211005Z AUTO 18003KT 10SM CLR 23/23 A3003 RMK AO2
T02300225=

Extra information for KHBI:More info

Metar Taf Metar & Taf Last 4 Metars F.Rules Stats Wind Profile Meteogram Temp Stats Airport Information Weather charts Add Link Nearby VenuesMetar ALERT Operation Metar Decoded Social comments

AIRNAV info for KHBI